Courtland, CA (95615)

6:25 AM PDT on October 25, 2014 (GMT -0700)
Sutter Island | Change Station
CLOSE
Current Station
Personal Weather Station
Location: Courtland, CA
Elevation: 15 ft
Nearby Weather Stations
Active Advisory: Wind Advisory

Elev 15 ft 38.28 °N, 121.59 °W | Updated 13 minutes ago

Overcast
Overcast
57.3 °F
Feels Like 57.3 °F
N
0.0
Wind Variable Wind from ENE
Gusts 7.0 mph

Today
High -- | Low -- °F
--% Chance of Precip.
Yesterday
High -- | Low -- °F
Precip. -- in
7:25 AM 6:14 PM
Waxing Crescent, 3% visible
Pressure 29.92 in
Visibility 10.0 miles
Clouds Overcast 4400 ft
Dew Point 55 °F
Humidity 91%
Rainfall 0.00 in
Snow Depth Not available.
UV 0 out of 12
Pollen 2.40 out of 12
PM2.5 Good
Flu Activity Sporadic
METAR KSAC 251253Z 12007KT 10SM OVC044 16/12 A2992 RMK AO2 SLP130 T01610117

More Conditions Fewer Conditions

Pressure 29.92 in
Visibility 10.0 miles
Clouds Overcast 4400 ft
Dew Point 55 °F
Humidity 91%
Rainfall 0.00 in
Snow Depth Not available.
UV 0 out of 12
Pollen 2.40 out of 12
PM2.5 Good
Flu Activity Sporadic
METAR KSAC 251253Z 12007KT 10SM OVC044 16/12 A2992 RMK AO2 SLP130 T01610117

More Conditions Fewer Conditions

10-Day Weather Forecast

Almanac

Astronomy

Oct. 25, 2014 Rise Set
Actual Time 7:25 AM PDT 6:14 PM PDT
Civil Twilight 6:58 AM PDT 6:41 PM PDT
Nautical Twilight 6:27 AM PDT 7:12 PM PDT
Astronomical Twilight 5:56 AM PDT 7:43 PM PDT
Moon 9:08 AM PDT 7:43 PM PDT
Length of Visible Light 11h 43m
Length of Day
10h 49m
Tomorrow will be 2m 17s shorter.
Waxing Crescent, 3% of the Moon is Illuminated
Today
Waxing Crescent
Oct 30
First Quarter
Nov 6
Full
Nov 14
Last Quarter
Nov 22
New

Today's Extremes

State Highs State Lows

Community

WunderPhotos

Upload Photos

1,764,829 photos uploaded!

Nearby

Air Quality

  Air Quality AQ Index Pollutant
Yesterday Good
PM2.5
Current Good
PM2.5
Saturday Good
OZONE
Sunday Good
OZONE
Monday Good
OZONE
Tuesday Good
OZONE
Wednesday Good
OZONE

Snow Depth

Station Depth Elevation
Echo Peak 1 in 7800 ft
Rubicon #2 1 in 7500 ft
Forestdale Creek 0 in 8029 ft
Blue Lakes 0 in 8000 ft
Ward Creek #3 1 in 6750 ft

Earthquake Activity

City Distance Mag. Time & Date
Gerlach-Empire, Nevada 168 miles 2.5 7:16 AM PDT
2014-10-23
Minimum magnitude displayed is 2.5.

Coastal Water Temperatures

Place Temperature
San Francisco, CA 63.0 °F
Richmond, CA 64.0 °F
Port Chicago, CA 66.0 °F

Nearby Weather Stations